Archival Weather

Al Kharj

Al Kharj, Saudi Arabia (OEKJ)

Report from: Thursday, September 21, 2023 3:00 PM UTC
Current time: Friday, February 23, 2024 7:51 PM UTC

Current weather – Weather history – Daily summaries
Weather forecast

Temperature39.0°C (102.2°F)
Heat index35.7°C (96.3°F)
Dew point-5.0°C (23.0°F)
Winds 9 kts (4.6 m/s, 10.4 mph) East-Northeast (60°)
Clouds Sky clear
Altimeter29.85 in.Hg (1011 mB)
Relative humidity6 %
Density altitude2,852 ft. (869 m)
Remarks Ceiling and visibility OK
Flight conditions Visual Meteorological Conditions
Raw dataOEKJ 211500Z 06009KT CAVOK 39/M05 Q1011
An error has occurred. This application may no longer respond until reloaded. Reload 🗙